sensor_id;sensor_type;location;lat;lon;timestamp;P1;durP1;ratioP1;P2;durP2;ratioP2
10945;SDS011;5525;42.648;23.368;2023-08-20T00:00:19;7.00;;;6.30;;
10945;SDS011;5525;42.648;23.368;2023-08-20T00:02:47;6.25;;;5.60;;
10945;SDS011;5525;42.648;23.368;2023-08-20T00:05:17;9.05;;;6.57;;
10945;SDS011;5525;42.648;23.368;2023-08-20T00:07:45;7.35;;;6.32;;
10945;SDS011;5525;42.648;23.368;2023-08-20T00:10:13;7.97;;;5.70;;
10945;SDS011;5525;42.648;23.368;2023-08-20T00:12:40;10.05;;;6.40;;
10945;SDS011;5525;42.648;23.368;2023-08-20T00:15:07;8.60;;;5.82;;
10945;SDS011;5525;42.648;23.368;2023-08-20T00:17:35;6.65;;;5.97;;
10945;SDS011;5525;42.648;23.368;2023-08-20T00:20:04;10.48;;;6.97;;
10945;SDS011;5525;42.648;23.368;2023-08-20T00:22:35;8.85;;;6.57;;
10945;SDS011;5525;42.648;23.368;2023-08-20T00:25:03;7.72;;;6.85;;
10945;SDS011;5525;42.648;23.368;2023-08-20T00:27:31;7.50;;;6.80;;
10945;SDS011;5525;42.648;23.368;2023-08-20T00:29:58;7.07;;;6.47;;
10945;SDS011;5525;42.648;23.368;2023-08-20T00:32:25;7.35;;;6.60;;
10945;SDS011;5525;42.648;23.368;2023-08-20T00:34:52;6.97;;;6.30;;
10945;SDS011;5525;42.648;23.368;2023-08-20T00:37:19;8.05;;;6.97;;
10945;SDS011;5525;42.648;23.368;2023-08-20T00:39:46;8.25;;;6.93;;
10945;SDS011;5525;42.648;23.368;2023-08-20T00:42:12;7.13;;;6.43;;
10945;SDS011;5525;42.648;23.368;2023-08-20T00:44:41;7.22;;;6.53;;
10945;SDS011;5525;42.648;23.368;2023-08-20T00:47:09;7.97;;;7.18;;
10945;SDS011;5525;42.648;23.368;2023-08-20T00:49:36;7.32;;;6.63;;
10945;SDS011;5525;42.648;23.368;2023-08-20T00:52:03;9.10;;;6.75;;
10945;SDS011;5525;42.648;23.368;2023-08-20T00:54:31;8.68;;;6.90;;
10945;SDS011;5525;42.648;23.368;2023-08-20T00:56:58;7.75;;;7.03;;
10945;SDS011;5525;42.648;23.368;2023-08-20T00:59:26;7.63;;;6.72;;
10945;SDS011;5525;42.648;23.368;2023-08-20T01:01:54;7.40;;;6.45;;
10945;SDS011;5525;42.648;23.368;2023-08-20T01:04:21;8.48;;;7.68;;
10945;SDS011;5525;42.648;23.368;2023-08-20T01:06:50;7.85;;;7.03;;
10945;SDS011;5525;42.648;23.368;2023-08-20T01:09:28;7.53;;;6.75;;
10945;SDS011;5525;42.648;23.368;2023-08-20T01:12:06;8.07;;;7.22;;
10945;SDS011;5525;42.648;23.368;2023-08-20T01:14:34;7.65;;;6.78;;
10945;SDS011;5525;42.648;23.368;2023-08-20T01:17:02;8.00;;;7.25;;
10945;SDS011;5525;42.648;23.368;2023-08-20T01:19:29;7.57;;;6.82;;
10945;SDS011;5525;42.648;23.368;2023-08-20T01:22:04;8.57;;;7.22;;
10945;SDS011;5525;42.648;23.368;2023-08-20T01:24:44;9.23;;;7.72;;
10945;SDS011;5525;42.648;23.368;2023-08-20T01:27:25;8.75;;;7.40;;
10945;SDS011;5525;42.648;23.368;2023-08-20T01:30:02;9.52;;;7.05;;
10945;SDS011;5525;42.648;23.368;2023-08-20T01:32:29;8.65;;;7.55;;
10945;SDS011;5525;42.648;23.368;2023-08-20T01:34:56;8.10;;;7.18;;
10945;SDS011;5525;42.648;23.368;2023-08-20T01:37:23;10.55;;;7.28;;
10945;SDS011;5525;42.648;23.368;2023-08-20T01:39:49;10.73;;;7.25;;
10945;SDS011;5525;42.648;23.368;2023-08-20T01:42:16;8.25;;;7.25;;
10945;SDS011;5525;42.648;23.368;2023-08-20T01:44:42;10.27;;;7.80;;
10945;SDS011;5525;42.648;23.368;2023-08-20T01:47:10;8.18;;;7.47;;
10945;SDS011;5525;42.648;23.368;2023-08-20T01:49:37;8.80;;;7.93;;
10945;SDS011;5525;42.648;23.368;2023-08-20T01:52:04;8.73;;;7.82;;
10945;SDS011;5525;42.648;23.368;2023-08-20T01:54:31;9.55;;;7.97;;
10945;SDS011;5525;42.648;23.368;2023-08-20T01:56:58;9.35;;;8.20;;
10945;SDS011;5525;42.648;23.368;2023-08-20T01:59:24;9.48;;;6.95;;
10945;SDS011;5525;42.648;23.368;2023-08-20T02:01:51;8.80;;;7.80;;
10945;SDS011;5525;42.648;23.368;2023-08-20T02:04:19;10.25;;;7.95;;
10945;SDS011;5525;42.648;23.368;2023-08-20T02:06:45;8.77;;;7.78;;
10945;SDS011;5525;42.648;23.368;2023-08-20T02:09:12;9.02;;;8.00;;
10945;SDS011;5525;42.648;23.368;2023-08-20T02:11:39;12.20;;;8.32;;
10945;SDS011;5525;42.648;23.368;2023-08-20T02:14:05;8.65;;;7.82;;
10945;SDS011;5525;42.648;23.368;2023-08-20T02:16:32;8.73;;;7.93;;
10945;SDS011;5525;42.648;23.368;2023-08-20T02:18:59;9.20;;;7.88;;
10945;SDS011;5525;42.648;23.368;2023-08-20T02:21:28;8.75;;;7.85;;
10945;SDS011;5525;42.648;23.368;2023-08-20T02:23:55;9.52;;;7.88;;
10945;SDS011;5525;42.648;23.368;2023-08-20T02:26:21;9.95;;;8.45;;
10945;SDS011;5525;42.648;23.368;2023-08-20T02:28:48;9.20;;;8.30;;
10945;SDS011;5525;42.648;23.368;2023-08-20T02:31:15;8.75;;;7.72;;
10945;SDS011;5525;42.648;23.368;2023-08-20T02:33:41;8.82;;;8.02;;
10945;SDS011;5525;42.648;23.368;2023-08-20T02:36:08;8.52;;;7.72;;
10945;SDS011;5525;42.648;23.368;2023-08-20T02:38:36;8.70;;;7.90;;
10945;SDS011;5525;42.648;23.368;2023-08-20T02:41:03;8.55;;;7.75;;
10945;SDS011;5525;42.648;23.368;2023-08-20T02:43:29;9.40;;;8.45;;
10945;SDS011;5525;42.648;23.368;2023-08-20T02:45:56;8.60;;;7.80;;
10945;SDS011;5525;42.648;23.368;2023-08-20T02:48:23;9.02;;;8.15;;
10945;SDS011;5525;42.648;23.368;2023-08-20T02:50:52;9.38;;;8.00;;
10945;SDS011;5525;42.648;23.368;2023-08-20T02:53:18;9.70;;;8.07;;
10945;SDS011;5525;42.648;23.368;2023-08-20T02:55:46;8.82;;;7.93;;
10945;SDS011;5525;42.648;23.368;2023-08-20T02:58:13;9.57;;;8.60;;
10945;SDS011;5525;42.648;23.368;2023-08-20T03:00:40;8.40;;;7.55;;
10945;SDS011;5525;42.648;23.368;2023-08-20T03:03:08;8.75;;;7.95;;
10945;SDS011;5525;42.648;23.368;2023-08-20T03:05:34;9.40;;;7.82;;
10945;SDS011;5525;42.648;23.368;2023-08-20T03:08:01;8.95;;;8.07;;
10945;SDS011;5525;42.648;23.368;2023-08-20T03:10:29;8.77;;;7.90;;
10945;SDS011;5525;42.648;23.368;2023-08-20T03:12:58;9.43;;;8.27;;
10945;SDS011;5525;42.648;23.368;2023-08-20T03:15:26;8.65;;;7.80;;
10945;SDS011;5525;42.648;23.368;2023-08-20T03:17:52;10.48;;;8.18;;
10945;SDS011;5525;42.648;23.368;2023-08-20T03:20:19;8.55;;;7.65;;
10945;SDS011;5525;42.648;23.368;2023-08-20T03:22:46;8.43;;;6.90;;
10945;SDS011;5525;42.648;23.368;2023-08-20T03:25:13;9.88;;;8.18;;
10945;SDS011;5525;42.648;23.368;2023-08-20T03:27:41;8.82;;;7.93;;
10945;SDS011;5525;42.648;23.368;2023-08-20T03:30:10;8.35;;;7.55;;
10945;SDS011;5525;42.648;23.368;2023-08-20T03:32:37;8.60;;;7.80;;
10945;SDS011;5525;42.648;23.368;2023-08-20T03:35:04;9.88;;;7.53;;
10945;SDS011;5525;42.648;23.368;2023-08-20T03:37:31;8.75;;;7.90;;
10945;SDS011;5525;42.648;23.368;2023-08-20T03:39:58;8.98;;;8.18;;
10945;SDS011;5525;42.648;23.368;2023-08-20T03:42:24;8.52;;;7.63;;
10945;SDS011;5525;42.648;23.368;2023-08-20T03:44:51;10.30;;;8.65;;
10945;SDS011;5525;42.648;23.368;2023-08-20T03:47:19;9.35;;;7.90;;
10945;SDS011;5525;42.648;23.368;2023-08-20T03:49:46;8.35;;;7.53;;
10945;SDS011;5525;42.648;23.368;2023-08-20T03:52:13;8.05;;;7.35;;
10945;SDS011;5525;42.648;23.368;2023-08-20T03:54:40;8.65;;;7.75;;
10945;SDS011;5525;42.648;23.368;2023-08-20T03:57:07;10.75;;;7.65;;
10945;SDS011;5525;42.648;23.368;2023-08-20T03:59:34;8.95;;;8.05;;
10945;SDS011;5525;42.648;23.368;2023-08-20T04:02:00;9.65;;;8.23;;
10945;SDS011;5525;42.648;23.368;2023-08-20T04:04:29;11.85;;;8.32;;
10945;SDS011;5525;42.648;23.368;2023-08-20T04:06:55;11.98;;;8.68;;
10945;SDS011;5525;42.648;23.368;2023-08-20T04:09:22;8.45;;;7.57;;
10945;SDS011;5525;42.648;23.368;2023-08-20T04:11:49;10.82;;;7.93;;
10945;SDS011;5525;42.648;23.368;2023-08-20T04:14:15;8.70;;;7.90;;
10945;SDS011;5525;42.648;23.368;2023-08-20T04:16:42;8.88;;;7.28;;
10945;SDS011;5525;42.648;23.368;2023-08-20T04:19:08;8.57;;;7.07;;
10945;SDS011;5525;42.648;23.368;2023-08-20T04:21:36;8.35;;;7.38;;
10945;SDS011;5525;42.648;23.368;2023-08-20T04:24:03;9.15;;;8.25;;
10945;SDS011;5525;42.648;23.368;2023-08-20T04:26:30;8.40;;;7.13;;
10945;SDS011;5525;42.648;23.368;2023-08-20T04:28:57;9.90;;;7.50;;
10945;SDS011;5525;42.648;23.368;2023-08-20T04:31:24;8.70;;;7.80;;
10945;SDS011;5525;42.648;23.368;2023-08-20T04:33:50;9.23;;;7.53;;
10945;SDS011;5525;42.648;23.368;2023-08-20T04:36:17;8.00;;;7.20;;
10945;SDS011;5525;42.648;23.368;2023-08-20T04:38:45;8.80;;;7.22;;
10945;SDS011;5525;42.648;23.368;2023-08-20T04:41:12;8.30;;;7.50;;
10945;SDS011;5525;42.648;23.368;2023-08-20T04:43:38;9.93;;;8.32;;
10945;SDS011;5525;42.648;23.368;2023-08-20T04:46:05;7.30;;;6.60;;
10945;SDS011;5525;42.648;23.368;2023-08-20T04:48:32;7.85;;;7.13;;
10945;SDS011;5525;42.648;23.368;2023-08-20T04:50:58;8.40;;;7.05;;
10945;SDS011;5525;42.648;23.368;2023-08-20T04:53:25;7.60;;;7.00;;
10945;SDS011;5525;42.648;23.368;2023-08-20T04:55:53;8.43;;;7.47;;
10945;SDS011;5525;42.648;23.368;2023-08-20T04:58:20;9.43;;;7.40;;
10945;SDS011;5525;42.648;23.368;2023-08-20T05:00:47;7.38;;;6.68;;
10945;SDS011;5525;42.648;23.368;2023-08-20T05:03:13;9.48;;;7.57;;
10945;SDS011;5525;42.648;23.368;2023-08-20T05:05:40;7.75;;;6.93;;
10945;SDS011;5525;42.648;23.368;2023-08-20T05:08:06;8.30;;;7.18;;
10945;SDS011;5525;42.648;23.368;2023-08-20T05:10:35;9.48;;;7.55;;
10945;SDS011;5525;42.648;23.368;2023-08-20T05:13:03;10.13;;;7.00;;
10945;SDS011;5525;42.648;23.368;2023-08-20T05:15:30;8.23;;;7.45;;
10945;SDS011;5525;42.648;23.368;2023-08-20T05:17:57;8.70;;;7.05;;
10945;SDS011;5525;42.648;23.368;2023-08-20T05:20:23;7.93;;;7.13;;
10945;SDS011;5525;42.648;23.368;2023-08-20T05:22:50;8.20;;;7.38;;
10945;SDS011;5525;42.648;23.368;2023-08-20T05:25:17;9.70;;;7.65;;
10945;SDS011;5525;42.648;23.368;2023-08-20T05:27:43;8.52;;;7.30;;
10945;SDS011;5525;42.648;23.368;2023-08-20T05:30:12;11.30;;;7.60;;
10945;SDS011;5525;42.648;23.368;2023-08-20T05:32:38;8.88;;;7.65;;
10945;SDS011;5525;42.648;23.368;2023-08-20T05:35:05;9.27;;;7.03;;
10945;SDS011;5525;42.648;23.368;2023-08-20T05:37:32;11.15;;;8.13;;
10945;SDS011;5525;42.648;23.368;2023-08-20T05:39:59;9.40;;;7.90;;
10945;SDS011;5525;42.648;23.368;2023-08-20T05:42:26;9.25;;;7.70;;
10945;SDS011;5525;42.648;23.368;2023-08-20T05:44:53;9.90;;;7.78;;
10945;SDS011;5525;42.648;23.368;2023-08-20T05:47:21;9.13;;;8.32;;
10945;SDS011;5525;42.648;23.368;2023-08-20T05:49:47;9.18;;;7.55;;
10945;SDS011;5525;42.648;23.368;2023-08-20T05:52:14;11.05;;;7.72;;
10945;SDS011;5525;42.648;23.368;2023-08-20T05:54:41;9.13;;;7.95;;
10945;SDS011;5525;42.648;23.368;2023-08-20T05:57:07;10.70;;;8.52;;
10945;SDS011;5525;42.648;23.368;2023-08-20T05:59:34;10.38;;;8.20;;
10945;SDS011;5525;42.648;23.368;2023-08-20T06:02:01;9.85;;;8.77;;
10945;SDS011;5525;42.648;23.368;2023-08-20T06:04:30;9.57;;;8.43;;
10945;SDS011;5525;42.648;23.368;2023-08-20T06:06:56;10.00;;;7.40;;
10945;SDS011;5525;42.648;23.368;2023-08-20T06:09:23;11.02;;;7.00;;
10945;SDS011;5525;42.648;23.368;2023-08-20T06:11:50;8.80;;;7.47;;
10945;SDS011;5525;42.648;23.368;2023-08-20T06:14:16;8.43;;;7.68;;
10945;SDS011;5525;42.648;23.368;2023-08-20T06:16:43;7.78;;;6.95;;
10945;SDS011;5525;42.648;23.368;2023-08-20T06:19:10;7.15;;;5.97;;
10945;SDS011;5525;42.648;23.368;2023-08-20T06:21:38;7.00;;;6.10;;
10945;SDS011;5525;42.648;23.368;2023-08-20T06:24:05;8.27;;;7.00;;
10945;SDS011;5525;42.648;23.368;2023-08-20T06:26:32;8.20;;;6.60;;
10945;SDS011;5525;42.648;23.368;2023-08-20T06:28:59;6.97;;;6.35;;
10945;SDS011;5525;42.648;23.368;2023-08-20T06:31:25;8.02;;;7.03;;
10945;SDS011;5525;42.648;23.368;2023-08-20T06:33:52;8.07;;;6.80;;
10945;SDS011;5525;42.648;23.368;2023-08-20T06:36:18;7.18;;;6.50;;
10945;SDS011;5525;42.648;23.368;2023-08-20T06:38:46;8.68;;;6.78;;
10945;SDS011;5525;42.648;23.368;2023-08-20T06:41:13;7.20;;;6.55;;
10945;SDS011;5525;42.648;23.368;2023-08-20T06:43:40;7.57;;;6.63;;
10945;SDS011;5525;42.648;23.368;2023-08-20T06:46:07;7.53;;;6.80;;
10945;SDS011;5525;42.648;23.368;2023-08-20T06:48:34;8.65;;;7.15;;
10945;SDS011;5525;42.648;23.368;2023-08-20T06:51:07;6.93;;;6.13;;
10945;SDS011;5525;42.648;23.368;2023-08-20T06:53:34;7.00;;;6.30;;
10945;SDS011;5525;42.648;23.368;2023-08-20T06:56:02;7.70;;;6.75;;
10945;SDS011;5525;42.648;23.368;2023-08-20T06:58:29;7.38;;;6.38;;
10945;SDS011;5525;42.648;23.368;2023-08-20T07:00:56;7.25;;;6.40;;
10945;SDS011;5525;42.648;23.368;2023-08-20T07:03:32;6.75;;;6.15;;
10945;SDS011;5525;42.648;23.368;2023-08-20T07:05:58;10.73;;;6.68;;
10945;SDS011;5525;42.648;23.368;2023-08-20T07:08:25;8.73;;;6.47;;
10945;SDS011;5525;42.648;23.368;2023-08-20T07:10:52;10.93;;;6.38;;
10945;SDS011;5525;42.648;23.368;2023-08-20T07:13:20;8.23;;;5.80;;
10945;SDS011;5525;42.648;23.368;2023-08-20T07:15:47;8.00;;;6.00;;
10945;SDS011;5525;42.648;23.368;2023-08-20T07:18:14;6.55;;;5.72;;
10945;SDS011;5525;42.648;23.368;2023-08-20T07:20:41;6.53;;;5.90;;
10945;SDS011;5525;42.648;23.368;2023-08-20T07:23:08;7.63;;;5.70;;
10945;SDS011;5525;42.648;23.368;2023-08-20T07:25:36;6.60;;;5.90;;
10945;SDS011;5525;42.648;23.368;2023-08-20T07:28:03;6.53;;;5.82;;
10945;SDS011;5525;42.648;23.368;2023-08-20T07:30:31;6.50;;;5.90;;
10945;SDS011;5525;42.648;23.368;2023-08-20T07:32:58;6.28;;;5.38;;
10945;SDS011;5525;42.648;23.368;2023-08-20T07:35:25;6.30;;;5.57;;
10945;SDS011;5525;42.648;23.368;2023-08-20T07:37:51;6.32;;;5.72;;
10945;SDS011;5525;42.648;23.368;2023-08-20T07:40:18;6.47;;;5.82;;
10945;SDS011;5525;42.648;23.368;2023-08-20T07:42:46;6.38;;;5.78;;
10945;SDS011;5525;42.648;23.368;2023-08-20T07:45:12;9.90;;;5.97;;
10945;SDS011;5525;42.648;23.368;2023-08-20T07:47:40;5.95;;;5.45;;
10945;SDS011;5525;42.648;23.368;2023-08-20T07:50:07;7.97;;;5.53;;
10945;SDS011;5525;42.648;23.368;2023-08-20T07:52:34;6.82;;;5.88;;
10945;SDS011;5525;42.648;23.368;2023-08-20T07:55:01;5.95;;;5.45;;
10945;SDS011;5525;42.648;23.368;2023-08-20T07:57:28;6.70;;;5.68;;
10945;SDS011;5525;42.648;23.368;2023-08-20T07:59:54;6.63;;;5.93;;
10945;SDS011;5525;42.648;23.368;2023-08-20T08:02:21;6.90;;;5.75;;
10945;SDS011;5525;42.648;23.368;2023-08-20T08:04:49;5.72;;;5.30;;
10945;SDS011;5525;42.648;23.368;2023-08-20T08:07:16;5.68;;;5.10;;
10945;SDS011;5525;42.648;23.368;2023-08-20T08:09:42;5.35;;;4.90;;
10945;SDS011;5525;42.648;23.368;2023-08-20T08:12:10;5.55;;;5.05;;
10945;SDS011;5525;42.648;23.368;2023-08-20T08:14:37;5.45;;;4.88;;
10945;SDS011;5525;42.648;23.368;2023-08-20T08:17:04;7.32;;;4.90;;
10945;SDS011;5525;42.648;23.368;2023-08-20T08:19:30;5.70;;;5.13;;
10945;SDS011;5525;42.648;23.368;2023-08-20T08:21:58;6.50;;;4.90;;
10945;SDS011;5525;42.648;23.368;2023-08-20T08:24:25;8.68;;;4.80;;
10945;SDS011;5525;42.648;23.368;2023-08-20T08:26:52;5.43;;;5.03;;
10945;SDS011;5525;42.648;23.368;2023-08-20T08:29:18;5.20;;;4.70;;
10945;SDS011;5525;42.648;23.368;2023-08-20T08:31:45;6.53;;;4.53;;
10945;SDS011;5525;42.648;23.368;2023-08-20T08:34:11;5.32;;;4.63;;
10945;SDS011;5525;42.648;23.368;2023-08-20T08:36:39;6.82;;;4.80;;
10945;SDS011;5525;42.648;23.368;2023-08-20T08:39:07;4.57;;;4.20;;
10945;SDS011;5525;42.648;23.368;2023-08-20T08:41:34;4.95;;;4.40;;
10945;SDS011;5525;42.648;23.368;2023-08-20T08:44:05;6.30;;;4.03;;
10945;SDS011;5525;42.648;23.368;2023-08-20T08:46:34;4.78;;;4.40;;
10945;SDS011;5525;42.648;23.368;2023-08-20T08:49:01;5.15;;;4.32;;
10945;SDS011;5525;42.648;23.368;2023-08-20T08:51:30;5.20;;;3.83;;
10945;SDS011;5525;42.648;23.368;2023-08-20T08:53:57;3.67;;;3.38;;
10945;SDS011;5525;42.648;23.368;2023-08-20T08:56:27;4.65;;;4.28;;
10945;SDS011;5525;42.648;23.368;2023-08-20T08:58:54;4.88;;;3.50;;
10945;SDS011;5525;42.648;23.368;2023-08-20T09:01:20;4.07;;;3.78;;
10945;SDS011;5525;42.648;23.368;2023-08-20T09:03:47;4.13;;;3.75;;
10945;SDS011;5525;42.648;23.368;2023-08-20T09:06:14;4.60;;;4.20;;
10945;SDS011;5525;42.648;23.368;2023-08-20T09:08:40;4.97;;;4.28;;
10945;SDS011;5525;42.648;23.368;2023-08-20T09:11:07;4.82;;;4.32;;
10945;SDS011;5525;42.648;23.368;2023-08-20T09:13:35;4.15;;;3.75;;
10945;SDS011;5525;42.648;23.368;2023-08-20T09:16:03;4.00;;;3.60;;
10945;SDS011;5525;42.648;23.368;2023-08-20T09:18:31;4.97;;;3.85;;
10945;SDS011;5525;42.648;23.368;2023-08-20T09:20:58;3.97;;;3.58;;
10945;SDS011;5525;42.648;23.368;2023-08-20T09:23:26;4.15;;;3.72;;
10945;SDS011;5525;42.648;23.368;2023-08-20T09:25:54;3.95;;;3.65;;
10945;SDS011;5525;42.648;23.368;2023-08-20T09:28:21;4.00;;;3.63;;
10945;SDS011;5525;42.648;23.368;2023-08-20T09:30:55;3.63;;;3.33;;
10945;SDS011;5525;42.648;23.368;2023-08-20T09:33:27;5.28;;;3.50;;
10945;SDS011;5525;42.648;23.368;2023-08-20T09:35:54;4.90;;;3.80;;
10945;SDS011;5525;42.648;23.368;2023-08-20T09:38:21;3.97;;;3.58;;
10945;SDS011;5525;42.648;23.368;2023-08-20T09:40:49;3.90;;;3.60;;
10945;SDS011;5525;42.648;23.368;2023-08-20T09:43:17;5.05;;;3.50;;
10945;SDS011;5525;42.648;23.368;2023-08-20T09:45:45;3.60;;;3.35;;
10945;SDS011;5525;42.648;23.368;2023-08-20T09:48:14;6.07;;;3.58;;
10945;SDS011;5525;42.648;23.368;2023-08-20T09:50:43;4.25;;;3.80;;
10945;SDS011;5525;42.648;23.368;2023-08-20T09:53:17;3.40;;;3.10;;
10945;SDS011;5525;42.648;23.368;2023-08-20T09:55:52;3.58;;;3.28;;
10945;SDS011;5525;42.648;23.368;2023-08-20T09:58:23;3.55;;;3.25;;
10945;SDS011;5525;42.648;23.368;2023-08-20T10:00:50;5.00;;;3.45;;
10945;SDS011;5525;42.648;23.368;2023-08-20T10:03:19;3.75;;;3.05;;
10945;SDS011;5525;42.648;23.368;2023-08-20T10:05:48;6.28;;;3.03;;
10945;SDS011;5525;42.648;23.368;2023-08-20T10:08:15;4.18;;;3.20;;
10945;SDS011;5525;42.648;23.368;2023-08-20T10:10:43;3.63;;;3.33;;
10945;SDS011;5525;42.648;23.368;2023-08-20T10:13:11;4.05;;;3.38;;
10945;SDS011;5525;42.648;23.368;2023-08-20T10:15:39;4.07;;;3.78;;
10945;SDS011;5525;42.648;23.368;2023-08-20T10:18:07;6.55;;;3.35;;
10945;SDS011;5525;42.648;23.368;2023-08-20T10:20:35;4.50;;;3.63;;
10945;SDS011;5525;42.648;23.368;2023-08-20T10:23:04;3.70;;;3.35;;
10945;SDS011;5525;42.648;23.368;2023-08-20T10:25:31;8.60;;;3.72;;
10945;SDS011;5525;42.648;23.368;2023-08-20T10:28:10;4.25;;;3.38;;
10945;SDS011;5525;42.648;23.368;2023-08-20T10:30:38;3.40;;;3.20;;
10945;SDS011;5525;42.648;23.368;2023-08-20T10:33:05;3.55;;;3.25;;
10945;SDS011;5525;42.648;23.368;2023-08-20T10:35:47;3.70;;;3.40;;
10945;SDS011;5525;42.648;23.368;2023-08-20T10:38:15;4.20;;;3.80;;
10945;SDS011;5525;42.648;23.368;2023-08-20T10:40:46;3.67;;;3.35;;
10945;SDS011;5525;42.648;23.368;2023-08-20T10:43:23;4.47;;;3.90;;
10945;SDS011;5525;42.648;23.368;2023-08-20T10:46:03;4.70;;;3.60;;
10945;SDS011;5525;42.648;23.368;2023-08-20T10:48:35;4.07;;;3.58;;
10945;SDS011;5525;42.648;23.368;2023-08-20T10:51:10;4.13;;;3.80;;
10945;SDS011;5525;42.648;23.368;2023-08-20T10:53:37;4.10;;;3.70;;
10945;SDS011;5525;42.648;23.368;2023-08-20T10:56:12;4.82;;;3.90;;
10945;SDS011;5525;42.648;23.368;2023-08-20T10:58:40;4.30;;;3.90;;
10945;SDS011;5525;42.648;23.368;2023-08-20T11:01:15;4.35;;;4.00;;
10945;SDS011;5525;42.648;23.368;2023-08-20T11:03:44;3.85;;;3.55;;
10945;SDS011;5525;42.648;23.368;2023-08-20T11:06:13;4.43;;;4.05;;
10945;SDS011;5525;42.648;23.368;2023-08-20T11:08:38;3.95;;;3.65;;
10945;SDS011;5525;42.648;23.368;2023-08-20T11:11:06;4.32;;;3.92;;
10945;SDS011;5525;42.648;23.368;2023-08-20T11:13:34;4.10;;;3.70;;
10945;SDS011;5525;42.648;23.368;2023-08-20T11:16:01;3.95;;;3.67;;
10945;SDS011;5525;42.648;23.368;2023-08-20T11:18:29;4.45;;;3.47;;
10945;SDS011;5525;42.648;23.368;2023-08-20T11:20:57;4.47;;;4.03;;
10945;SDS011;5525;42.648;23.368;2023-08-20T11:23:25;4.40;;;4.00;;
10945;SDS011;5525;42.648;23.368;2023-08-20T11:25:52;4.18;;;3.80;;
10945;SDS011;5525;42.648;23.368;2023-08-20T11:28:19;5.45;;;3.80;;
10945;SDS011;5525;42.648;23.368;2023-08-20T11:30:46;4.05;;;3.72;;
10945;SDS011;5525;42.648;23.368;2023-08-20T11:33:13;4.90;;;4.00;;
10945;SDS011;5525;42.648;23.368;2023-08-20T11:35:41;4.00;;;3.60;;
10945;SDS011;5525;42.648;23.368;2023-08-20T11:38:07;5.07;;;3.60;;
10945;SDS011;5525;42.648;23.368;2023-08-20T11:40:37;4.25;;;3.95;;
10945;SDS011;5525;42.648;23.368;2023-08-20T11:43:04;5.63;;;3.70;;
10945;SDS011;5525;42.648;23.368;2023-08-20T11:45:31;5.43;;;3.70;;
10945;SDS011;5525;42.648;23.368;2023-08-20T11:47:58;4.00;;;3.60;;
10945;SDS011;5525;42.648;23.368;2023-08-20T11:50:25;3.83;;;3.50;;
10945;SDS011;5525;42.648;23.368;2023-08-20T11:52:52;4.03;;;3.60;;
10945;SDS011;5525;42.648;23.368;2023-08-20T11:55:23;4.47;;;3.90;;
10945;SDS011;5525;42.648;23.368;2023-08-20T11:57:52;4.70;;;4.20;;
10945;SDS011;5525;42.648;23.368;2023-08-20T12:00:25;5.50;;;3.80;;
10945;SDS011;5525;42.648;23.368;2023-08-20T12:02:53;4.20;;;3.80;;
10945;SDS011;5525;42.648;23.368;2023-08-20T12:05:20;5.05;;;3.97;;
10945;SDS011;5525;42.648;23.368;2023-08-20T12:07:55;6.22;;;4.30;;
10945;SDS011;5525;42.648;23.368;2023-08-20T12:10:23;4.50;;;4.03;;
10945;SDS011;5525;42.648;23.368;2023-08-20T12:12:52;4.43;;;4.03;;
10945;SDS011;5525;42.648;23.368;2023-08-20T12:15:18;4.32;;;4.03;;
10945;SDS011;5525;42.648;23.368;2023-08-20T12:17:55;5.68;;;4.30;;
10945;SDS011;5525;42.648;23.368;2023-08-20T12:20:22;4.05;;;3.75;;
10945;SDS011;5525;42.648;23.368;2023-08-20T12:22:48;4.40;;;4.00;;
10945;SDS011;5525;42.648;23.368;2023-08-20T12:25:15;6.63;;;4.20;;
10945;SDS011;5525;42.648;23.368;2023-08-20T12:27:42;4.50;;;4.10;;
10945;SDS011;5525;42.648;23.368;2023-08-20T12:30:11;5.03;;;4.35;;
10945;SDS011;5525;42.648;23.368;2023-08-20T12:32:38;5.30;;;4.18;;
10945;SDS011;5525;42.648;23.368;2023-08-20T12:35:05;5.25;;;3.67;;
10945;SDS011;5525;42.648;23.368;2023-08-20T12:37:32;7.07;;;4.20;;
10945;SDS011;5525;42.648;23.368;2023-08-20T12:39:59;4.72;;;4.30;;
10945;SDS011;5525;42.648;23.368;2023-08-20T12:42:25;4.25;;;3.85;;
10945;SDS011;5525;42.648;23.368;2023-08-20T12:44:52;4.88;;;4.43;;
10945;SDS011;5525;42.648;23.368;2023-08-20T12:47:20;4.72;;;4.32;;
10945;SDS011;5525;42.648;23.368;2023-08-20T12:49:47;4.90;;;4.50;;
10945;SDS011;5525;42.648;23.368;2023-08-20T12:52:13;4.95;;;4.10;;
10945;SDS011;5525;42.648;23.368;2023-08-20T12:54:40;6.28;;;4.72;;
10945;SDS011;5525;42.648;23.368;2023-08-20T12:57:06;4.70;;;4.30;;
10945;SDS011;5525;42.648;23.368;2023-08-20T12:59:33;4.68;;;4.05;;
10945;SDS011;5525;42.648;23.368;2023-08-20T13:02:00;6.22;;;4.20;;
10945;SDS011;5525;42.648;23.368;2023-08-20T13:04:29;4.97;;;4.57;;
10945;SDS011;5525;42.648;23.368;2023-08-20T13:06:56;4.53;;;3.80;;
10945;SDS011;5525;42.648;23.368;2023-08-20T13:09:24;14.82;;;4.82;;
10945;SDS011;5525;42.648;23.368;2023-08-20T13:11:51;4.95;;;4.40;;
10945;SDS011;5525;42.648;23.368;2023-08-20T13:14:22;4.65;;;4.05;;
10945;SDS011;5525;42.648;23.368;2023-08-20T13:16:49;4.38;;;4.00;;
10945;SDS011;5525;42.648;23.368;2023-08-20T13:19:16;5.13;;;3.95;;
10945;SDS011;5525;42.648;23.368;2023-08-20T13:21:44;6.60;;;4.43;;
10945;SDS011;5525;42.648;23.368;2023-08-20T13:24:11;4.15;;;3.78;;
10945;SDS011;5525;42.648;23.368;2023-08-20T13:26:38;4.03;;;3.72;;
10945;SDS011;5525;42.648;23.368;2023-08-20T13:29:04;4.35;;;3.95;;
10945;SDS011;5525;42.648;23.368;2023-08-20T13:31:31;4.43;;;4.00;;
10945;SDS011;5525;42.648;23.368;2023-08-20T13:33:58;4.30;;;3.88;;
10945;SDS011;5525;42.648;23.368;2023-08-20T13:36:24;4.63;;;3.72;;
10945;SDS011;5525;42.648;23.368;2023-08-20T13:38:52;5.35;;;4.20;;
10945;SDS011;5525;42.648;23.368;2023-08-20T13:41:19;4.10;;;3.75;;
10945;SDS011;5525;42.648;23.368;2023-08-20T13:43:46;4.45;;;3.83;;
10945;SDS011;5525;42.648;23.368;2023-08-20T13:46:12;4.18;;;3.78;;
10945;SDS011;5525;42.648;23.368;2023-08-20T13:48:39;5.72;;;3.88;;
10945;SDS011;5525;42.648;23.368;2023-08-20T13:51:06;4.72;;;3.85;;
10945;SDS011;5525;42.648;23.368;2023-08-20T13:53:32;4.00;;;3.60;;
10945;SDS011;5525;42.648;23.368;2023-08-20T13:56:00;6.05;;;4.18;;
10945;SDS011;5525;42.648;23.368;2023-08-20T13:58:27;5.82;;;3.72;;
10945;SDS011;5525;42.648;23.368;2023-08-20T14:00:54;4.63;;;3.78;;
10945;SDS011;5525;42.648;23.368;2023-08-20T14:03:21;4.97;;;3.90;;
10945;SDS011;5525;42.648;23.368;2023-08-20T14:05:47;5.10;;;3.67;;
10945;SDS011;5525;42.648;23.368;2023-08-20T14:08:14;7.88;;;4.38;;
10945;SDS011;5525;42.648;23.368;2023-08-20T14:10:40;7.25;;;4.10;;
10945;SDS011;5525;42.648;23.368;2023-08-20T14:13:08;6.40;;;3.70;;
10945;SDS011;5525;42.648;23.368;2023-08-20T14:15:35;6.13;;;4.05;;
10945;SDS011;5525;42.648;23.368;2023-08-20T14:18:02;4.75;;;4.00;;
10945;SDS011;5525;42.648;23.368;2023-08-20T14:20:29;4.47;;;3.90;;
10945;SDS011;5525;42.648;23.368;2023-08-20T14:22:56;4.15;;;3.60;;
10945;SDS011;5525;42.648;23.368;2023-08-20T14:25:22;3.78;;;3.47;;
10945;SDS011;5525;42.648;23.368;2023-08-20T14:27:49;4.97;;;4.30;;
10945;SDS011;5525;42.648;23.368;2023-08-20T14:30:17;5.22;;;3.90;;
10945;SDS011;5525;42.648;23.368;2023-08-20T14:32:43;5.07;;;3.92;;
10945;SDS011;5525;42.648;23.368;2023-08-20T14:35:11;4.70;;;3.53;;
10945;SDS011;5525;42.648;23.368;2023-08-20T14:37:38;3.65;;;3.35;;
10945;SDS011;5525;42.648;23.368;2023-08-20T14:40:05;5.25;;;3.63;;
10945;SDS011;5525;42.648;23.368;2023-08-20T14:42:33;4.38;;;3.95;;
10945;SDS011;5525;42.648;23.368;2023-08-20T14:44:59;3.90;;;3.55;;
10945;SDS011;5525;42.648;23.368;2023-08-20T14:47:28;4.38;;;3.97;;
10945;SDS011;5525;42.648;23.368;2023-08-20T14:49:55;3.78;;;3.50;;